Sidney V. — WDB6019 — position and weather

sailwx.info

Track history (hours):
 
Tides and Currents Weather Stations Pressure Air Temp Water Temp Dewpoint Dewpoint Depression Visibility Wind Speed Wind Dir Waves Ship Positions

Sidney V.

Owner: Louisiana Tug Service LLC, Cutt Off, LA. More information available from US FCC via Universal Licensing System and Coast Guard Vessel Documentation Center.

Last reported at 2017-Nov-14 05:25 UTC. Time now 2017-Nov-19 10:19 UTC.
Position N 40°03' W 074°01'.

Length 23 m; draft 3 m.

Type: Tug. MMSI: 366916420.

Date/timePositionNaut miles runAvg speedWind from/ knotsBaromVisibWave heightAir tempDewpointWater temp
2017-Nov-14 05:25N 40°03' W 074°01'  
2017-Nov-07 13:15N 40°03' W 074°02'0 0.0
2017-Nov-07 12:57N 40°03' W 074°01'0 0.0
2017-Nov-07 12:17N 40°03' W 074°01'0 0.0
2017-Nov-07 11:55N 40°03' W 074°01'0 0.0
2017-Nov-07 11:21N 40°03' W 074°01'0 0.0
2017-Nov-07 09:52N 40°03' W 074°01'0 0.0
2017-Nov-07 09:22N 40°03' W 074°01'0 0.4
2017-Nov-07 08:16N 40°02' W 074°01'0 0.1
2017-Nov-07 07:52N 40°02' W 074°01'0 0.1
2017-Nov-07 06:03N 40°02' W 074°01'  
2017-Nov-05 00:53N 40°27' W 073°55'3 7.8
2017-Nov-05 00:27N 40°30' W 073°58'3 7.7
2017-Nov-05 00:00N 40°32' W 074°01'4 7.5
2017-Nov-04 23:30N 40°36' W 074°03'4 7.5
2017-Nov-04 23:00N 40°39' W 074°03'1 2.4
2017-Nov-04 22:30N 40°41' W 074°04'2 3.2
2017-Nov-04 22:00N 40°39' W 074°03'4 7.3
2017-Nov-04 21:30N 40°36' W 074°02'3 6.0
2017-Nov-04 21:00N 40°33' W 074°01'2 4.1
2017-Nov-04 20:27N 40°31' W 073°59'  
Track history (hours):
 
Tides and Currents Weather Stations Pressure Air Temp Water Temp Dewpoint Dewpoint Depression Visibility Wind Speed Wind Dir Waves Ship Positions

Sidney V.

Owner: Louisiana Tug Service LLC, Cutt Off, LA. More information available from US FCC via Universal Licensing System and Coast Guard Vessel Documentation Center.

Last reported at 2017-Nov-14 05:25 UTC. Time now 2017-Nov-19 10:19 UTC.
Position N 40°03' W 074°01'.

Length 23 m; draft 3 m.

Type: Tug. MMSI: 366916420.

Date/timePositionNaut miles runAvg speedWind from/ knotsBaromVisibWave heightAir tempDewpointWater temp
2017-Nov-14 05:25N 40°03' W 074°01'  
2017-Nov-07 13:15N 40°03' W 074°02'0 0.0
2017-Nov-07 12:57N 40°03' W 074°01'0 0.0
2017-Nov-07 12:17N 40°03' W 074°01'0 0.0
2017-Nov-07 11:55N 40°03' W 074°01'0 0.0
2017-Nov-07 11:21N 40°03' W 074°01'0 0.0
2017-Nov-07 09:52N 40°03' W 074°01'0 0.0
2017-Nov-07 09:22N 40°03' W 074°01'0 0.4
2017-Nov-07 08:16N 40°02' W 074°01'0 0.1
2017-Nov-07 07:52N 40°02' W 074°01'0 0.1
2017-Nov-07 06:03N 40°02' W 074°01'  
2017-Nov-05 00:53N 40°27' W 073°55'3 7.8
2017-Nov-05 00:27N 40°30' W 073°58'3 7.7
2017-Nov-05 00:00N 40°32' W 074°01'4 7.5
2017-Nov-04 23:30N 40°36' W 074°03'4 7.5
2017-Nov-04 23:00N 40°39' W 074°03'1 2.4
2017-Nov-04 22:30N 40°41' W 074°04'2 3.2
2017-Nov-04 22:00N 40°39' W 074°03'4 7.3
2017-Nov-04 21:30N 40°36' W 074°02'3 6.0
2017-Nov-04 21:00N 40°33' W 074°01'2 4.1
2017-Nov-04 20:27N 40°31' W 073°59'  

Dump ship's entire track history